Time;durP1;ratioP1;P1;durP2;ratioP2;P2;SDS_P1;SDS_P2;PMS_P1;PMS_P2;Temp;Humidity;BMP_temperature;BMP_pressure;BME280_temperature;BME280_humidity;BME280_pressure;Samples;Min_cycle;Max_cycle;Signal;HPM_P1;HPM_P2
2024/03/01 00:01:36;;;;;;;172.20;64.20;;;7.30;34.30;;;;;;4419716;28;659055;-80
2024/03/01 00:04:23;;;;;;;149.43;59.97;;;7.30;36.10;;;;;;4395471;28;658788;-79
2024/03/01 00:07:10;;;;;;;133.37;53.73;;;7.40;37.00;;;;;;4414370;28;659668;-80
2024/03/01 00:09:59;;;;;;;130.60;52.40;;;7.40;38.20;;;;;;4401429;28;658701;-78
2024/03/01 00:12:46;;;;;;;135.10;52.20;;;7.40;33.30;;;;;;4412131;28;658884;-79
2024/03/01 00:15:34;;;;;;;131.53;53.27;;;7.50;36.10;;;;;;4399572;28;658540;-79
2024/03/01 00:18:21;;;;;;;126.20;52.33;;;7.60;35.50;;;;;;4411543;28;658846;-80
2024/03/01 00:21:08;;;;;;;132.60;51.47;;;7.60;21.90;;;;;;4399840;28;658913;-79
2024/03/01 00:23:55;;;;;;;118.60;46.35;;;7.60;1.00;;;;;;4422826;28;659756;-80
2024/03/01 00:26:46;;;;;;;121.33;50.27;;;7.50;1.00;;;;;;4392460;28;657493;-79
2024/03/01 00:29:34;;;;;;;135.75;51.33;;;7.60;1.00;;;;;;4403839;28;658339;-79
2024/03/01 00:32:21;;;;;;;119.57;51.10;;;7.60;1.00;;;;;;4427263;28;658020;-79
2024/03/01 00:35:09;;;;;;;132.33;52.57;;;7.50;1.00;;;;;;4398250;28;657581;-79
2024/03/01 00:37:56;;;;;;;120.07;50.90;;;7.60;1.00;;;;;;4428799;28;657198;-80
2024/03/01 00:40:43;;;;;;;136.67;50.57;;;7.50;1.00;;;;;;4399280;28;657734;-79
2024/03/01 00:43:33;;;;;;;107.87;44.50;;;7.50;1.00;;;;;;4418659;28;657795;-79
2024/03/01 00:46:20;;;;;;;106.57;44.70;;;7.60;1.00;;;;;;4402804;28;657919;-79
2024/03/01 00:49:07;;;;;;;101.30;42.63;;;7.60;1.00;;;;;;4402584;28;657759;-77
2024/03/01 00:51:55;;;;;;;117.13;46.90;;;7.60;1.00;;;;;;4425156;28;657419;-79
2024/03/01 00:54:43;;;;;;;113.27;45.77;;;7.60;1.00;;;;;;4420997;28;657674;-78
2024/03/01 00:57:30;;;;;;;106.27;44.63;;;7.50;1.00;;;;;;4420484;28;658763;-79
2024/03/01 01:00:19;;;;;;;110.83;45.40;;;7.50;1.00;;;;;;4424833;28;658183;-78
2024/03/01 01:03:07;;;;;;;100.78;43.80;;;7.50;1.00;;;;;;4421788;28;657736;-79
2024/03/01 01:05:55;;;;;;;100.23;43.10;;;7.50;1.00;;;;;;4400914;28;657995;-79
2024/03/01 01:08:43;;;;;;;103.00;44.17;;;7.50;99.90;;;;;;4417657;28;658070;-79
2024/03/01 01:11:31;;;;;;;107.43;44.87;;;7.40;99.90;;;;;;4422274;28;659535;-80
2024/03/01 01:14:18;;;;;;;109.53;46.47;;;7.50;99.90;;;;;;4399317;28;658896;-79
2024/03/01 01:17:07;;;;;;;103.23;45.30;;;7.40;99.90;;;;;;4427723;28;659660;-79
2024/03/01 01:19:56;;;;;;;102.93;42.70;;;7.40;99.90;;;;;;4401636;28;659327;-79
2024/03/01 01:22:43;;;;;;;103.67;42.67;;;7.40;99.90;;;;;;4401532;28;658557;-79
2024/03/01 01:25:31;;;;;;;94.47;42.28;;;7.40;1.00;;;;;;4417584;28;659560;-79
2024/03/01 01:28:18;;;;;;;99.97;42.10;;;7.30;1.00;;;;;;4404148;28;657097;-79
2024/03/01 01:31:07;;;;;;;92.30;41.17;;;7.40;1.00;;;;;;4408226;28;656714;-79
2024/03/01 01:33:56;;;;;;;97.00;41.00;;;7.30;99.90;;;;;;4406920;28;657332;-80
2024/03/01 01:36:43;;;;;;;93.10;39.27;;;7.40;99.90;;;;;;4407653;28;658467;-79
2024/03/01 01:39:30;;;;;;;91.63;39.85;;;7.30;99.90;;;;;;4425478;28;658059;-80
2024/03/01 01:42:18;;;;;;;90.93;38.57;;;7.40;1.00;;;;;;4403716;28;658201;-79
2024/03/01 01:45:06;;;;;;;84.80;36.67;;;7.40;99.90;;;;;;4430702;28;656834;-79
2024/03/01 01:47:54;;;;;;;87.77;36.47;;;7.30;99.90;;;;;;4405875;28;657462;-79
2024/03/01 01:50:42;;;;;;;85.73;38.50;;;7.30;99.90;;;;;;4425305;28;658738;-79
2024/03/01 01:53:30;;;;;;;85.70;37.80;;;7.30;99.90;;;;;;4389636;28;657538;-79
2024/03/01 01:56:17;;;;;;;75.23;36.57;;;7.40;99.90;;;;;;4413710;28;657554;-80
2024/03/01 01:59:04;;;;;;;80.07;35.00;;;7.40;99.90;;;;;;4397934;28;657996;-79
2024/03/01 02:01:51;;;;;;;79.40;33.63;;;7.30;99.90;;;;;;4391656;28;657634;-79
2024/03/01 02:04:39;;;;;;;88.10;37.00;;;7.30;99.90;;;;;;4385844;28;658072;-80
2024/03/01 02:07:28;;;;;;;87.30;36.77;;;7.20;78.10;;;;;;4407748;28;658220;-80
2024/03/01 02:10:17;;;;;;;85.23;34.87;;;7.20;1.00;;;;;;4387743;28;658306;-80
2024/03/01 02:13:05;;;;;;;79.30;34.33;;;7.10;1.00;;;;;;4391776;28;656959;-79
2024/03/01 02:15:53;;;;;;;83.27;33.70;;;7.00;1.00;;;;;;4397241;28;656541;-79
2024/03/01 02:18:40;;;;;;;74.30;31.33;;;7.00;1.00;;;;;;4396651;28;656855;-79
2024/03/01 02:21:31;;;;;;;100.70;40.25;;;7.00;1.00;;;;;;4359621;28;656383;-77
2024/03/01 02:24:20;;;;;;;83.40;33.50;;;6.90;1.00;;;;;;4392250;28;657936;-79
2024/03/01 02:27:08;;;;;;;74.87;32.60;;;6.90;1.00;;;;;;4405036;28;656546;-78
2024/03/01 02:29:55;;;;;;;71.17;33.33;;;6.80;1.00;;;;;;4425097;28;657149;-80
2024/03/01 02:32:42;;;;;;;85.90;36.50;;;6.70;1.00;;;;;;4388772;28;657579;-78
2024/03/01 02:35:30;;;;;;;95.43;36.70;;;6.60;1.00;;;;;;4393425;28;657586;-79
2024/03/01 02:38:17;;;;;;;70.23;30.97;;;6.50;1.00;;;;;;4401634;28;657267;-79
2024/03/01 02:41:06;;;;;;;68.80;29.93;;;6.40;1.00;;;;;;4377169;28;657048;-79
2024/03/01 02:43:53;;;;;;;83.87;34.23;;;6.30;97.90;;;;;;4387859;28;656223;-79
2024/03/01 02:46:40;;;;;;;82.20;35.27;;;6.20;99.90;;;;;;4408415;28;657935;-79
2024/03/01 02:49:28;;;;;;;79.03;36.17;;;6.20;99.90;;;;;;4399871;28;657869;-77
2024/03/01 02:52:15;;;;;;;75.33;33.63;;;6.10;99.90;;;;;;4406574;28;659100;-79
2024/03/01 02:55:02;;;;;;;75.67;33.57;;;6.10;99.90;;;;;;4402488;28;657975;-77
2024/03/01 02:57:52;;;;;;;84.33;35.83;;;6.10;1.00;;;;;;4424612;28;658907;-79
2024/03/01 03:00:39;;;;;;;78.07;35.40;;;6.20;1.00;;;;;;4405908;28;656542;-79
2024/03/01 03:03:26;;;;;;;86.03;35.57;;;6.30;1.00;;;;;;4425937;28;656483;-79
2024/03/01 03:06:13;;;;;;;76.07;34.07;;;6.30;1.00;;;;;;4401328;28;656521;-79
2024/03/01 03:09:00;;;;;;;74.03;35.00;;;6.20;1.00;;;;;;4431330;28;656976;-79
2024/03/01 03:11:48;;;;;;;77.27;34.03;;;6.20;1.00;;;;;;4400178;28;656273;-78
2024/03/01 03:14:36;;;;;;;67.53;33.37;;;6.10;1.00;;;;;;4418956;28;656820;-79
2024/03/01 03:17:24;;;;;;;79.03;34.03;;;6.10;1.00;;;;;;4400492;28;656774;-79
2024/03/01 03:20:11;;;;;;;77.40;33.63;;;6.10;99.90;;;;;;4424478;28;656704;-79
2024/03/01 03:22:58;;;;;;;73.47;33.00;;;6.10;99.90;;;;;;4408923;28;657752;-78
2024/03/01 03:25:46;;;;;;;73.38;33.25;;;5.90;99.90;;;;;;4424724;28;658370;-79
2024/03/01 03:28:33;;;;;;;79.30;34.87;;;5.80;99.90;;;;;;4395510;28;658353;-79
2024/03/01 03:31:22;;;;;;;74.77;34.27;;;5.80;99.90;;;;;;4422177;28;658729;-79
2024/03/01 03:34:10;;;;;;;75.53;33.87;;;5.80;99.90;;;;;;4402826;28;658784;-79
2024/03/01 03:36:57;;;;;;;78.60;35.37;;;5.80;99.90;;;;;;4429862;28;657863;-78
2024/03/01 03:39:44;;;;;;;69.10;32.57;;;5.80;1.00;;;;;;4399527;28;658913;-79
2024/03/01 03:42:32;;;;;;;77.27;33.93;;;5.80;1.00;;;;;;4429921;28;657162;-79
2024/03/01 03:45:19;;;;;;;71.97;30.87;;;5.80;1.00;;;;;;4394771;28;657589;-78
2024/03/01 03:48:08;;;;;;;70.57;32.43;;;5.80;1.00;;;;;;4431324;28;656574;-78
2024/03/01 03:50:56;;;;;;;75.17;32.27;;;5.80;1.00;;;;;;4397293;28;657669;-78
2024/03/01 03:53:46;;;;;;;74.23;31.33;;;5.70;1.00;;;;;;4390693;28;656460;-78
2024/03/01 03:56:33;;;;;;;72.33;31.80;;;5.70;1.00;;;;;;4402615;28;656604;-78
2024/03/01 03:59:21;;;;;;;73.70;31.33;;;5.80;1.00;;;;;;4415720;28;656640;-77
2024/03/01 04:02:08;;;;;;;74.67;30.37;;;5.90;1.00;;;;;;4389691;28;657377;-77
2024/03/01 04:04:56;;;;;;;65.43;30.97;;;5.90;1.00;;;;;;4405985;28;657338;-77
2024/03/01 04:07:44;;;;;;;69.10;29.83;;;6.00;99.90;;;;;;4387593;28;656845;-78
2024/03/01 04:10:33;;;;;;;60.17;28.03;;;6.00;99.90;;;;;;4393321;28;657377;-78
2024/03/01 04:13:20;;;;;;;76.33;32.07;;;5.90;99.90;;;;;;4381762;28;658315;-77
2024/03/01 04:16:08;;;;;;;71.80;30.50;;;6.00;99.90;;;;;;4394713;28;657888;-78
2024/03/01 04:18:55;;;;;;;66.57;30.23;;;6.10;99.90;;;;;;4411220;28;659341;-78
2024/03/01 04:21:44;;;;;;;63.60;29.90;;;6.10;99.90;;;;;;4414782;28;657575;-76
2024/03/01 04:24:31;;;;;;;70.67;33.10;;;6.10;99.90;;;;;;4414030;28;657673;-78
2024/03/01 04:27:18;;;;;;;82.60;36.33;;;6.10;99.90;;;;;;4401713;28;658368;-78
2024/03/01 04:30:08;;;;;;;83.73;35.10;;;6.10;99.90;;;;;;4430056;28;658457;-78
2024/03/01 04:32:55;;;;;;;124.07;43.57;;;6.20;99.90;;;;;;4399299;28;658103;-77
2024/03/01 04:35:43;;;;;;;119.97;42.97;;;6.20;1.00;;;;;;4401327;28;658510;-78
2024/03/01 04:38:31;;;;;;;104.60;39.13;;;6.20;1.00;;;;;;4404518;28;658614;-78
2024/03/01 04:41:19;;;;;;;79.57;34.22;;;6.30;1.00;;;;;;4416375;28;657591;-77
2024/03/01 04:44:07;;;;;;;75.40;32.30;;;6.30;99.90;;;;;;4427230;28;656720;-78
2024/03/01 04:46:56;;;;;;;74.40;33.07;;;6.30;99.90;;;;;;4409048;28;658342;-78
2024/03/01 04:49:45;;;;;;;76.77;31.77;;;6.30;99.90;;;;;;4398071;28;658471;-78
2024/03/01 04:52:33;;;;;;;66.50;28.93;;;6.30;99.90;;;;;;4402667;28;658627;-76
2024/03/01 04:55:21;;;;;;;72.40;31.63;;;6.30;99.90;;;;;;4419014;28;658208;-77
2024/03/01 04:58:08;;;;;;;67.30;30.30;;;6.30;99.90;;;;;;4402478;28;658865;-78
2024/03/01 05:00:56;;;;;;;70.53;30.70;;;6.20;99.90;;;;;;4430757;28;657735;-78
2024/03/01 05:03:44;;;;;;;71.50;31.70;;;6.20;99.90;;;;;;4401503;28;657748;-77
2024/03/01 05:06:31;;;;;;;73.67;31.37;;;6.10;1.00;;;;;;4421375;28;657585;-78
2024/03/01 05:09:19;;;;;;;79.90;34.30;;;6.10;1.00;;;;;;4407648;28;656760;-78
2024/03/01 05:12:13;;;;;;;79.57;36.37;;;6.10;1.00;;;;;;4426860;28;656143;-78
2024/03/01 05:15:00;;;;;;;82.00;38.10;;;6.10;1.00;;;;;;4382255;28;657111;-78
2024/03/01 05:17:47;;;;;;;79.27;36.13;;;6.10;1.00;;;;;;4418588;28;657204;-76
2024/03/01 05:20:35;;;;;;;86.80;37.10;;;6.20;1.00;;;;;;4422961;28;657446;-78
2024/03/01 05:23:22;;;;;;;73.10;34.27;;;6.10;1.00;;;;;;4427474;28;656641;-77
2024/03/01 05:26:10;;;;;;;70.47;34.00;;;6.10;1.00;;;;;;4430401;28;657546;-77
2024/03/01 05:28:59;;;;;;;72.10;34.47;;;6.10;1.00;;;;;;4409600;28;656945;-77
2024/03/01 05:31:47;;;;;;;122.87;45.33;;;6.10;1.00;;;;;;4424721;28;656868;-78
2024/03/01 05:34:35;;;;;;;127.07;48.85;;;6.00;1.00;;;;;;4409274;28;657424;-78
2024/03/01 05:37:22;;;;;;;94.70;40.60;;;6.00;1.00;;;;;;4422368;28;657834;-76
2024/03/01 05:40:12;;;;;;;96.30;38.47;;;5.90;1.00;;;;;;4432007;28;657435;-78
2024/03/01 05:43:00;;;;;;;86.00;38.23;;;5.80;1.00;;;;;;4408964;28;657168;-78
2024/03/01 05:45:49;;;;;;;87.27;37.30;;;5.80;1.00;;;;;;4433940;28;656543;-77
2024/03/01 05:48:37;;;;;;;82.70;37.60;;;5.90;31.70;;;;;;4401813;28;656570;-78
2024/03/01 05:51:24;;;;;;;82.20;36.17;;;5.80;1.00;;;;;;4397219;28;657875;-77
2024/03/01 05:54:11;;;;;;;86.37;37.50;;;5.70;1.00;;;;;;4423862;28;657313;-78
2024/03/01 05:56:58;;;;;;;75.67;34.83;;;5.70;1.00;;;;;;4400283;28;656698;-78
2024/03/01 05:59:45;;;;;;;73.38;32.45;;;5.80;1.00;;;;;;4434348;28;657202;-78
2024/03/01 06:02:34;;;;;;;74.53;32.90;;;5.80;1.00;;;;;;4414212;28;657202;-77
2024/03/01 06:05:22;;;;;;;69.57;32.87;;;5.80;1.00;;;;;;4434974;28;656509;-77
2024/03/01 06:08:09;;;;;;;75.37;33.00;;;5.70;1.00;;;;;;4397953;28;656895;-78
2024/03/01 06:10:56;;;;;;;77.60;33.83;;;5.80;1.00;;;;;;4429813;28;656220;-78
2024/03/01 06:13:44;;;;;;;141.10;51.60;;;5.90;1.00;;;;;;4395513;28;656600;-77
2024/03/01 06:16:31;;;;;;;109.83;46.90;;;6.00;1.00;;;;;;4403864;28;657584;-78
2024/03/01 06:19:19;;;;;;;106.20;45.20;;;6.10;99.90;;;;;;4394533;28;657944;-77
2024/03/01 06:22:07;;;;;;;123.67;51.83;;;6.10;44.50;;;;;;4412719;28;658092;-77
2024/03/01 06:24:54;;;;;;;116.97;50.63;;;6.20;27.30;;;;;;4394045;28;659154;-77
2024/03/01 06:27:41;;;;;;;97.80;40.60;;;6.20;53.20;;;;;;4430683;28;658450;-78
2024/03/01 06:30:29;;;;;;;85.83;41.03;;;6.20;93.50;;;;;;4401109;28;658034;-78
2024/03/01 06:33:16;;;;;;;84.80;40.90;;;6.30;24.50;;;;;;4422822;28;657295;-77
2024/03/01 06:36:05;;;;;;;100.53;46.40;;;6.40;1.00;;;;;;4399278;28;657504;-77
2024/03/01 06:38:52;;;;;;;107.00;46.90;;;6.40;1.00;;;;;;4413324;28;657514;-77
2024/03/01 06:41:40;;;;;;;107.80;47.60;;;6.50;1.00;;;;;;4417149;28;657926;-79
2024/03/01 06:44:28;;;;;;;104.27;47.13;;;6.50;1.00;;;;;;4406940;28;657868;-79
2024/03/01 06:47:15;;;;;;;92.50;44.20;;;6.50;1.00;;;;;;4395481;28;659860;-76
2024/03/01 06:50:03;;;;;;;97.37;44.07;;;6.50;1.00;;;;;;4382777;28;656519;-76
2024/03/01 06:52:52;;;;;;;97.50;43.33;;;6.70;1.00;;;;;;4400543;28;656765;-77
2024/03/01 06:55:39;;;;;;;89.27;41.50;;;6.80;99.90;;;;;;4391668;28;656489;-78
2024/03/01 06:58:26;;;;;;;86.57;41.60;;;6.80;99.90;;;;;;4412510;28;657733;-77
2024/03/01 07:01:14;;;;;;;97.07;44.20;;;6.90;99.90;;;;;;4381617;28;657460;-77
2024/03/01 07:04:01;;;;;;;88.07;40.43;;;6.90;95.40;;;;;;4416141;28;657574;-78
2024/03/01 07:06:48;;;;;;;89.40;41.87;;;7.00;1.00;;;;;;4382236;28;657652;-77
2024/03/01 07:09:37;;;;;;;90.43;42.37;;;7.10;1.00;;;;;;4432995;28;657257;-78
2024/03/01 07:12:24;;;;;;;96.37;46.33;;;7.20;1.00;;;;;;4392109;28;657440;-77
2024/03/01 07:15:13;;;;;;;88.70;43.50;;;7.20;1.00;;;;;;4410392;28;656554;-77
2024/03/01 07:18:00;;;;;;;91.83;41.97;;;7.30;99.90;;;;;;4385824;28;657406;-77
2024/03/01 07:20:47;;;;;;;87.20;42.28;;;7.40;99.90;;;;;;4388664;28;658131;-77
2024/03/01 07:23:35;;;;;;;87.50;41.43;;;7.40;1.00;;;;;;4413320;28;657812;-77
2024/03/01 07:26:24;;;;;;;85.33;40.33;;;7.50;42.30;;;;;;4406467;28;656692;-76
2024/03/01 07:29:11;;;;;;;84.33;37.77;;;7.60;1.00;;;;;;4389853;28;657683;-78
2024/03/01 07:31:58;;;;;;;75.30;36.10;;;7.70;1.00;;;;;;4393292;28;656466;-77
2024/03/01 07:34:46;;;;;;;77.63;37.33;;;7.80;99.90;;;;;;4419602;28;656442;-78
2024/03/01 07:37:33;;;;;;;70.27;35.27;;;7.90;99.90;;;;;;4385392;28;657382;-77
2024/03/01 07:40:20;;;;;;;70.57;34.33;;;8.00;99.90;;;;;;4402313;28;657693;-77
2024/03/01 07:43:09;;;;;;;72.53;33.87;;;8.20;99.90;;;;;;4388922;28;658484;-77
2024/03/01 07:45:56;;;;;;;72.83;35.53;;;8.20;1.00;;;;;;4412057;28;658069;-78
2024/03/01 07:48:44;;;;;;;75.57;35.03;;;8.30;1.00;;;;;;4394378;28;657086;-77
2024/03/01 07:51:31;;;;;;;70.47;34.47;;;8.30;1.00;;;;;;4420065;28;656803;-78
2024/03/01 07:54:18;;;;;;;68.87;32.53;;;8.40;1.00;;;;;;4396442;28;656935;-78
2024/03/01 07:57:05;;;;;;;62.33;32.43;;;8.40;99.90;;;;;;4426622;28;657927;-78
2024/03/01 07:59:54;;;;;;;68.70;31.73;;;8.50;99.90;;;;;;4403668;28;658122;-78
2024/03/01 08:02:41;;;;;;;77.83;36.00;;;8.70;99.90;;;;;;4403003;28;657767;-78
2024/03/01 08:05:29;;;;;;;69.83;33.63;;;8.80;99.90;;;;;;4389373;28;657457;-78
2024/03/01 08:08:20;;;;;;;67.57;32.90;;;8.90;1.00;;;;;;4422279;28;657904;-78
2024/03/01 08:11:08;;;;;;;67.33;32.50;;;9.00;1.00;;;;;;4373706;28;657381;-76
2024/03/01 08:13:56;;;;;;;75.33;33.17;;;9.10;99.90;;;;;;4415934;28;656706;-78
2024/03/01 08:16:44;;;;;;;72.37;34.37;;;9.30;99.90;;;;;;4404190;28;657308;-78
2024/03/01 08:19:35;;;;;;;70.33;34.20;;;9.30;99.90;;;;;;4409618;28;657703;-79
2024/03/01 08:22:24;;;;;;;61.70;30.67;;;9.50;1.00;;;;;;4394177;28;657644;-79
2024/03/01 08:25:11;;;;;;;62.57;31.30;;;9.60;1.00;;;;;;4401489;28;657505;-79
2024/03/01 08:27:58;;;;;;;67.20;32.40;;;9.60;1.00;;;;;;4395642;28;656404;-78
2024/03/01 08:30:45;;;;;;;63.33;29.70;;;9.60;1.00;;;;;;4409451;28;656553;-79
2024/03/01 08:33:34;;;;;;;65.10;32.47;;;9.80;1.00;;;;;;4384558;28;656718;-77
2024/03/01 08:36:21;;;;;;;72.63;32.97;;;9.90;99.90;;;;;;4407679;28;656862;-79
2024/03/01 08:39:15;;;;;;;64.57;31.23;;;10.10;99.90;;;;;;4400689;28;657655;-79
2024/03/01 08:42:03;;;;;;;67.28;31.38;;;10.00;99.90;;;;;;4377434;28;658381;-77
2024/03/01 08:44:53;;;;;;;66.87;31.67;;;10.00;99.90;;;;;;4423056;28;660233;-79
2024/03/01 08:47:42;;;;;;;62.10;31.73;;;10.00;99.90;;;;;;4398606;28;659091;-80
2024/03/01 08:50:45;;;;;;;74.13;34.97;;;10.00;1.00;;;;;;4381630;28;659082;-79
2024/03/01 08:53:58;;;;;;;65.73;33.37;;;10.00;1.00;;;;;;4381647;28;657710;-79
2024/03/01 08:56:45;;;;;;;64.07;31.97;;;10.10;99.90;;;;;;4387909;28;658369;-80
2024/03/01 08:59:42;;;;;;;65.07;32.50;;;10.10;99.90;;;;;;4392923;28;658853;-78
2024/03/01 09:02:45;;;;;;;73.03;34.70;;;10.20;99.90;;;;;;4376740;28;658683;-80
2024/03/01 09:05:33;;;;;;;76.00;38.00;;;10.50;99.90;;;;;;4373771;28;658382;-77
2024/03/01 09:08:24;;;;;;;73.23;35.23;;;10.80;99.90;;;;;;4401976;28;659634;-80
2024/03/01 09:11:11;;;;;;;66.03;34.23;;;11.10;1.00;;;;;;4377377;28;658473;-80
2024/03/01 09:13:58;;;;;;;68.37;33.03;;;11.20;99.90;;;;;;4391409;28;657915;-79
2024/03/01 09:16:46;;;;;;;66.33;31.70;;;11.30;1.00;;;;;;4409851;28;659793;-80
2024/03/01 09:19:38;;;;;;;62.33;30.90;;;11.30;1.00;;;;;;4384604;28;658390;-80
2024/03/01 09:22:25;;;;;;;56.53;29.60;;;11.50;1.00;;;;;;4406636;28;658817;-80
2024/03/01 09:25:50;;;;;;;52.60;27.70;;;11.70;1.00;;;;;;4411785;28;657794;-78
2024/03/01 09:28:37;;;;;;;71.63;34.07;;;11.80;1.00;;;;;;4390246;28;658252;-79
2024/03/01 09:31:25;;;;;;;53.37;26.87;;;11.90;99.90;;;;;;4431167;28;658004;-80
2024/03/01 09:34:15;;;;;;;50.27;25.10;;;12.00;99.90;;;;;;4419354;28;659265;-79
2024/03/01 09:37:04;;;;;;;53.07;24.77;;;11.90;99.90;;;;;;4404297;28;658890;-77
2024/03/01 09:39:51;;;;;;;41.90;22.77;;;12.10;99.90;;;;;;4428357;28;658653;-78
2024/03/01 09:42:45;;;;;;;46.63;23.00;;;12.50;1.00;;;;;;4405254;28;659147;-78
2024/03/01 09:45:54;;;;;;;52.83;26.70;;;12.80;27.30;;;;;;4396377;28;657683;-77
2024/03/01 09:48:46;;;;;;;64.50;32.87;;;13.10;1.00;;;;;;4398709;28;658432;-79
2024/03/01 09:51:34;;;;;;;60.33;29.33;;;12.80;35.00;;;;;;4368124;28;657260;-78
2024/03/01 09:54:25;;;;;;;45.10;23.40;;;12.90;75.50;;;;;;4409772;28;658776;-79
2024/03/01 09:57:16;;;;;;;37.77;19.17;;;13.00;1.00;;;;;;4359026;28;659167;-76
2024/03/01 10:00:09;;;;;;;39.23;21.37;;;13.10;1.00;;;;;;4368521;28;657481;-79
2024/03/01 10:03:03;;;;;;;46.73;24.13;;;13.00;1.00;;;;;;4357571;28;657686;-78
2024/03/01 10:06:05;;;;;;;51.93;27.10;;;12.70;1.00;;;;;;4383346;28;657929;-79
2024/03/01 10:08:58;;;;;;;49.40;27.03;;;12.70;99.90;;;;;;4407876;28;657553;-78
2024/03/01 10:11:52;;;;;;;50.33;25.67;;;12.50;1.00;;;;;;4391426;28;659063;-79
2024/03/01 10:14:44;;;;;;;55.37;26.33;;;12.60;99.90;;;;;;4358320;28;658864;-78
2024/03/01 10:17:40;;;;;;;53.83;26.50;;;12.50;99.90;;;;;;4382413;28;659030;-79
2024/03/01 10:20:32;;;;;;;53.73;26.97;;;12.30;1.00;;;;;;4396997;28;658566;-77
2024/03/01 10:23:26;;;;;;;54.70;27.07;;;12.30;1.00;;;;;;4383732;28;659156;-79
2024/03/01 10:26:18;;;;;;;54.57;28.43;;;12.30;1.00;;;;;;4365665;28;657709;-78
2024/03/01 10:29:13;;;;;;;57.10;30.80;;;12.20;1.00;;;;;;4384669;28;658836;-79
2024/03/01 10:32:07;;;;;;;64.47;30.30;;;12.10;1.00;;;;;;4367756;28;658151;-79
2024/03/01 10:34:59;;;;;;;61.17;28.80;;;11.90;99.90;;;;;;4367156;28;658156;-79
2024/03/01 10:37:56;;;;;;;60.50;29.27;;;12.00;99.90;;;;;;4387872;28;659537;-79
2024/03/01 10:40:47;;;;;;;56.97;26.02;;;11.80;99.90;;;;;;4353409;28;660153;-79
2024/03/01 10:43:40;;;;;;;45.33;22.83;;;11.70;99.90;;;;;;4380177;28;659643;-79
2024/03/01 10:46:31;;;;;;;45.33;23.47;;;11.80;1.00;;;;;;4404824;28;659212;-79
2024/03/01 10:49:20;;;;;;;53.63;24.43;;;11.70;1.00;;;;;;4348266;28;657642;-79
2024/03/01 10:52:11;;;;;;;45.60;23.13;;;11.80;1.00;;;;;;4401640;28;657713;-78
2024/03/01 10:54:58;;;;;;;67.60;28.33;;;11.90;1.00;;;;;;4380961;28;657651;-79
2024/03/01 10:57:50;;;;;;;44.40;22.80;;;11.90;1.00;;;;;;4411661;28;657770;-80
2024/03/01 11:00:41;;;;;;;43.57;22.47;;;11.80;1.00;;;;;;4356249;28;657867;-77
2024/03/01 11:03:32;;;;;;;48.60;25.37;;;11.90;1.00;;;;;;4372338;28;658581;-80
2024/03/01 11:06:24;;;;;;;55.53;26.33;;;11.80;1.00;;;;;;4367961;28;657815;-80
2024/03/01 11:09:15;;;;;;;57.73;27.07;;;11.80;1.00;;;;;;4389488;28;657548;-77
2024/03/01 11:12:06;;;;;;;49.43;25.60;;;11.90;1.00;;;;;;4362405;28;658553;-77
2024/03/01 11:15:07;;;;;;;58.67;29.23;;;11.90;1.00;;;;;;4365605;28;658011;-79
2024/03/01 11:17:54;;;;;;;52.80;28.23;;;11.90;99.90;;;;;;4383714;28;658089;-79
2024/03/01 11:20:44;;;;;;;56.45;30.20;;;11.90;99.90;;;;;;4409838;28;658457;-80
2024/03/01 11:23:35;;;;;;;59.27;29.73;;;11.90;99.90;;;;;;4385529;28;658617;-79
2024/03/01 11:26:28;;;;;;;64.27;30.80;;;11.70;99.90;;;;;;4386785;28;658933;-79
2024/03/01 11:29:19;;;;;;;63.80;30.27;;;11.80;99.90;;;;;;4379690;28;659150;-80
2024/03/01 11:32:11;;;;;;;55.03;27.87;;;11.90;99.90;;;;;;4382003;28;659122;-79
2024/03/01 11:35:03;;;;;;;51.10;28.23;;;12.00;99.90;;;;;;4353938;28;659348;-79
2024/03/01 11:38:01;;;;;;;46.53;25.77;;;12.30;99.90;;;;;;4383007;28;659768;-79
2024/03/01 11:40:52;;;;;;;48.30;23.97;;;12.40;1.00;;;;;;4358046;28;659653;-79
2024/03/01 11:43:49;;;;;;;46.00;22.53;;;12.60;1.00;;;;;;4377452;28;658603;-79
2024/03/01 11:46:47;;;;;;;40.23;22.00;;;13.10;1.00;;;;;;4388411;28;659022;-79
2024/03/01 11:49:53;;;;;;;44.60;22.17;;;13.60;99.90;;;;;;4387767;28;658311;-76
2024/03/01 11:52:54;;;;;;;62.47;27.23;;;14.10;1.00;;;;;;4367446;28;659815;-79
2024/03/01 11:55:51;;;;;;;46.57;21.33;;;14.50;99.90;;;;;;4372312;28;658040;-78
2024/03/01 11:58:44;;;;;;;38.90;19.90;;;14.80;1.00;;;;;;4348131;28;659346;-80
2024/03/01 12:01:37;;;;;;;39.73;19.13;;;14.70;1.00;;;;;;4367648;28;658250;-79
2024/03/01 12:04:36;;;;;;;43.43;20.27;;;15.00;99.90;;;;;;4365049;28;658391;-79
2024/03/01 12:07:46;;;;;;;49.60;22.30;;;15.40;99.90;;;;;;4378616;28;658423;-78
2024/03/01 12:10:38;;;;;;;42.67;21.00;;;15.50;1.00;;;;;;4357505;28;658824;-79
2024/03/01 12:13:25;;;;;;;44.83;19.13;;;16.00;99.90;;;;;;4371111;28;657411;-79
2024/03/01 12:16:16;;;;;;;34.87;18.80;;;16.30;99.90;;;;;;4376094;28;659076;-78
2024/03/01 12:19:08;;;;;;;36.07;18.80;;;16.50;14.20;;;;;;4370489;28;659265;-78
2024/03/01 12:22:10;;;;;;;52.10;22.20;;;16.60;1.00;;;;;;4359488;28;658958;-78
2024/03/01 12:24:58;;;;;;;45.17;19.70;;;16.60;99.90;;;;;;4367769;28;657320;-78
2024/03/01 12:28:08;;;;;;;33.57;18.53;;;16.60;1.00;;;;;;4404123;28;658636;-79
2024/03/01 12:31:00;;;;;;;33.13;17.80;;;16.70;48.60;;;;;;4378054;28;658153;-79
2024/03/01 12:34:01;;;;;;;35.10;18.87;;;16.70;1.00;;;;;;4358099;28;659083;-77
2024/03/01 12:36:51;;;;;;;38.13;21.13;;;16.20;1.00;;;;;;4366271;28;658189;-78
2024/03/01 12:39:39;;;;;;;42.20;22.03;;;16.40;99.90;;;;;;4382376;28;658230;-79
2024/03/01 12:42:29;;;;;;;42.93;21.63;;;16.60;14.30;;;;;;4411189;28;658320;-79
2024/03/01 12:45:28;;;;;;;41.57;20.97;;;16.40;36.40;;;;;;4362992;28;658723;-76
2024/03/01 12:48:18;;;;;;;44.30;21.17;;;16.20;1.00;;;;;;4365661;28;659280;-79
2024/03/01 12:51:13;;;;;;;38.83;21.00;;;15.80;99.90;;;;;;4362781;28;657674;-78
2024/03/01 12:54:04;;;;;;;38.07;18.30;;;15.80;99.90;;;;;;4374356;28;659210;-79
2024/03/01 12:56:56;;;;;;;40.60;20.67;;;15.60;66.30;;;;;;4382864;28;658844;-78
2024/03/01 12:59:46;;;;;;;42.80;21.37;;;15.60;99.90;;;;;;4358469;28;658682;-78
2024/03/01 13:03:00;;;;;;;41.77;20.47;;;15.50;99.90;;;;;;4389768;28;658538;-78
2024/03/01 13:05:48;;;;;;;66.10;25.90;;;15.10;99.90;;;;;;4367063;28;659393;-76
2024/03/01 13:08:40;;;;;;;42.67;20.83;;;15.10;99.90;;;;;;4425230;28;658994;-78
2024/03/01 13:11:28;;;;;;;43.43;19.40;;;15.00;99.90;;;;;;4361063;28;658419;-77
2024/03/01 13:14:20;;;;;;;41.53;20.70;;;14.70;1.00;;;;;;4408769;28;659136;-80
2024/03/01 13:17:12;;;;;;;39.80;20.43;;;14.30;1.00;;;;;;4371807;28;658340;-77
2024/03/01 13:20:10;;;;;;;44.27;20.60;;;14.20;1.00;;;;;;4391333;28;657697;-79
2024/03/01 13:23:11;;;;;;;43.03;21.70;;;14.10;1.00;;;;;;4400614;28;657505;-78
2024/03/01 13:26:19;;;;;;;43.57;21.37;;;14.10;1.00;;;;;;4397994;28;657612;-77
2024/03/01 13:29:10;;;;;;;43.03;21.73;;;14.00;22.40;;;;;;4397365;28;657339;-81
2024/03/01 13:32:00;;;;;;;46.50;22.53;;;13.90;99.80;;;;;;4382615;28;659417;-79
2024/03/01 13:34:50;;;;;;;50.27;24.63;;;13.70;1.00;;;;;;4386596;28;658642;-77
2024/03/01 13:37:38;;;;;;;57.90;27.63;;;13.50;1.00;;;;;;4399274;28;657503;-77
2024/03/01 13:40:30;;;;;;;55.00;26.50;;;13.30;1.00;;;;;;4410765;28;658048;-81
2024/03/01 13:43:23;;;;;;;61.93;30.20;;;13.20;99.90;;;;;;4363502;28;658182;-77
2024/03/01 13:46:15;;;;;;;60.53;31.30;;;12.90;99.90;;;;;;4395886;28;659075;-80
2024/03/01 13:49:03;;;;;;;68.40;32.23;;;12.70;1.00;;;;;;4398744;28;658512;-77
2024/03/01 13:51:51;;;;;;;66.07;33.20;;;12.50;1.00;;;;;;4392695;28;658024;-81
2024/03/01 13:54:39;;;;;;;70.80;33.67;;;12.40;99.90;;;;;;4370915;28;657720;-79
2024/03/01 13:57:26;;;;;;;65.07;32.70;;;12.30;99.90;;;;;;4384571;28;659027;-81
2024/03/01 14:00:19;;;;;;;67.83;33.37;;;12.30;99.90;;;;;;4378032;28;658575;-78
2024/03/01 14:03:06;;;;;;;76.23;35.63;;;12.10;99.90;;;;;;4353478;28;659999;-80
2024/03/01 14:05:56;;;;;;;75.50;34.97;;;12.10;1.00;;;;;;4380701;28;658525;-78
2024/03/01 14:08:43;;;;;;;72.60;33.87;;;11.90;1.00;;;;;;4375009;28;658246;-78
2024/03/01 14:11:31;;;;;;;72.53;34.13;;;11.90;1.00;;;;;;4400977;28;658333;-79
2024/03/01 14:14:19;;;;;;;70.17;34.57;;;11.60;1.00;;;;;;4374023;28;657793;-78
2024/03/01 14:17:09;;;;;;;74.10;34.43;;;11.60;99.90;;;;;;4394765;28;657498;-79
2024/03/01 14:19:56;;;;;;;75.97;35.47;;;11.50;99.90;;;;;;4374155;28;658733;-76